createdAt,value
2022-11-30T00:01:31.515Z,3.37
2022-11-30T00:04:33.764Z,3.39
2022-11-30T00:07:36.082Z,3.46
2022-11-30T00:10:39.654Z,3.35
2022-11-30T00:13:42.558Z,3.33
2022-11-30T00:16:44.852Z,3.36
2022-11-30T00:19:47.132Z,3.37
2022-11-30T00:22:49.361Z,3.50
2022-11-30T00:25:51.605Z,3.43
2022-11-30T00:28:54.012Z,3.42
2022-11-30T00:31:56.204Z,3.39
2022-11-30T00:34:58.454Z,3.39
2022-11-30T00:38:03.221Z,3.49
2022-11-30T00:41:05.772Z,3.46
2022-11-30T00:44:07.959Z,3.56
2022-11-30T00:47:10.302Z,3.46
2022-11-30T00:50:12.690Z,3.52
2022-11-30T00:53:16.270Z,3.57
2022-11-30T00:56:18.604Z,3.70
2022-11-30T00:59:20.850Z,3.64
2022-11-30T01:02:23.128Z,3.66
2022-11-30T01:05:26.044Z,3.70
2022-11-30T01:08:28.640Z,3.73
2022-11-30T01:11:31.707Z,3.67
2022-11-30T01:14:33.956Z,3.63
2022-11-30T01:17:36.554Z,3.50
2022-11-30T01:20:43.108Z,3.70
2022-11-30T01:23:45.731Z,3.54
2022-11-30T01:26:48.002Z,3.54
2022-11-30T01:29:50.247Z,3.57
2022-11-30T01:32:59.445Z,3.69
2022-11-30T01:36:06.828Z,3.73
2022-11-30T01:39:16.464Z,3.71
2022-11-30T01:42:20.074Z,3.73
2022-11-30T01:45:28.404Z,3.69
2022-11-30T01:48:31.021Z,3.73
2022-11-30T01:51:54.492Z,3.67
2022-11-30T01:55:03.802Z,3.62
2022-11-30T01:58:11.511Z,3.62
2022-11-30T02:01:13.798Z,3.60
2022-11-30T02:04:23.521Z,3.70
2022-11-30T02:07:26.196Z,3.67
2022-11-30T02:10:32.042Z,3.57
2022-11-30T02:14:03.767Z,3.66
2022-11-30T02:17:42.106Z,3.69
2022-11-30T02:20:53.383Z,3.60
2022-11-30T02:23:55.566Z,3.66
2022-11-30T02:27:36.291Z,3.71
2022-11-30T02:30:43.955Z,3.74
2022-11-30T02:33:49.101Z,3.73
2022-11-30T02:36:52.880Z,3.67
2022-11-30T02:39:55.135Z,3.59
2022-11-30T02:43:00.300Z,3.56
2022-11-30T02:46:31.356Z,3.50
2022-11-30T02:49:37.836Z,3.59
2022-11-30T02:52:40.588Z,3.62
2022-11-30T02:55:43.008Z,3.69
2022-11-30T02:58:45.480Z,3.66
2022-11-30T03:01:47.817Z,3.83
2022-11-30T03:04:50.172Z,3.87
2022-11-30T03:07:52.504Z,3.84
2022-11-30T03:10:54.792Z,3.85
2022-11-30T03:13:57.023Z,3.73
2022-11-30T03:16:59.243Z,3.77
2022-11-30T03:20:02.111Z,3.71
2022-11-30T03:23:04.362Z,3.87
2022-11-30T03:26:08.278Z,3.81
2022-11-30T03:29:10.611Z,3.87
2022-11-30T03:32:12.815Z,3.80
2022-11-30T03:35:15.094Z,3.78
2022-11-30T03:38:17.371Z,3.77
2022-11-30T03:41:19.626Z,3.80
2022-11-30T03:44:21.915Z,3.84
2022-11-30T03:47:24.186Z,3.85
2022-11-30T03:50:26.432Z,3.84
2022-11-30T03:53:28.736Z,3.91
2022-11-30T03:56:31.090Z,3.97
2022-11-30T03:59:33.397Z,3.94
2022-11-30T04:02:38.946Z,3.97
2022-11-30T04:05:43.941Z,3.95
2022-11-30T04:08:46.801Z,3.95
2022-11-30T04:11:49.035Z,3.93
2022-11-30T04:14:51.260Z,3.94
2022-11-30T04:17:53.517Z,4.01
2022-11-30T04:20:57.490Z,4.02
2022-11-30T04:23:59.696Z,4.08
2022-11-30T04:27:01.878Z,4.07
2022-11-30T04:30:04.417Z,3.93
2022-11-30T04:33:06.981Z,3.97
2022-11-30T04:36:18.842Z,4.02
2022-11-30T04:39:21.079Z,3.95
2022-11-30T04:42:23.343Z,3.98
2022-11-30T04:45:25.536Z,3.90
2022-11-30T04:48:27.736Z,3.99
2022-11-30T04:51:29.963Z,3.98
2022-11-30T04:54:32.261Z,4.01
2022-11-30T04:57:34.490Z,3.98
2022-11-30T05:00:37.427Z,4.07
2022-11-30T05:03:46.669Z,4.01
2022-11-30T05:06:48.919Z,4.01
2022-11-30T05:09:51.141Z,3.99
2022-11-30T05:12:53.828Z,3.97
2022-11-30T05:15:56.148Z,3.98
2022-11-30T05:18:58.445Z,4.04
2022-11-30T05:22:00.997Z,3.99
2022-11-30T05:25:04.115Z,3.98
2022-11-30T05:28:06.325Z,4.04
2022-11-30T05:31:08.614Z,4.09
2022-11-30T05:34:10.859Z,4.18
2022-11-30T05:37:13.105Z,4.14
2022-11-30T05:40:15.443Z,4.12
2022-11-30T05:43:18.905Z,4.11
2022-11-30T05:46:21.150Z,4.15
2022-11-30T05:49:23.479Z,4.18
2022-11-30T05:52:25.686Z,4.14
2022-11-30T05:55:29.579Z,4.28
2022-11-30T05:58:31.991Z,4.15
2022-11-30T06:01:34.398Z,4.21
2022-11-30T06:04:36.886Z,4.22
2022-11-30T06:07:39.938Z,4.22
2022-11-30T06:10:42.168Z,4.17
2022-11-30T06:13:44.526Z,4.21
2022-11-30T06:16:46.972Z,4.14
2022-11-30T06:19:49.327Z,4.09
2022-11-30T06:22:51.859Z,4.08
2022-11-30T06:25:54.179Z,4.09
2022-11-30T06:28:56.561Z,4.09
2022-11-30T06:31:58.956Z,4.17
2022-11-30T06:35:01.625Z,4.18
2022-11-30T06:38:04.085Z,4.18
2022-11-30T06:41:09.046Z,4.18
2022-11-30T06:44:11.759Z,4.12
2022-11-30T06:47:16.848Z,4.01
2022-11-30T06:50:19.169Z,4.11
2022-11-30T06:53:21.599Z,4.08
2022-11-30T06:56:23.971Z,4.19
2022-11-30T06:59:26.345Z,4.14
2022-11-30T07:02:28.823Z,4.28
2022-11-30T07:05:39.855Z,4.24
2022-11-30T07:08:43.772Z,4.14
2022-11-30T07:11:46.300Z,4.11
2022-11-30T07:14:52.435Z,4.21
2022-11-30T07:17:54.829Z,4.21
2022-11-30T07:21:00.384Z,4.17
2022-11-30T07:24:21.497Z,4.12
2022-11-30T07:27:26.687Z,4.24
2022-11-30T07:30:31.620Z,4.24
2022-11-30T07:33:33.944Z,4.32
2022-11-30T07:36:37.007Z,4.35
2022-11-30T07:39:39.360Z,4.32
2022-11-30T07:42:45.544Z,4.42
2022-11-30T07:45:55.209Z,4.55
2022-11-30T07:48:57.471Z,4.55
2022-11-30T07:51:59.752Z,4.49
2022-11-30T07:55:02.009Z,4.39
2022-11-30T07:58:04.387Z,4.49
2022-11-30T08:01:12.323Z,4.45
2022-11-30T08:04:15.077Z,4.39
2022-11-30T08:07:17.598Z,4.31
2022-11-30T08:10:26.072Z,4.34
2022-11-30T08:13:29.702Z,4.45
2022-11-30T08:16:37.952Z,4.39
2022-11-30T08:19:42.985Z,4.41
2022-11-30T08:22:46.248Z,4.31
2022-11-30T08:25:48.456Z,4.44
2022-11-30T08:28:52.213Z,4.39
2022-11-30T08:31:55.095Z,4.32
2022-11-30T08:34:57.446Z,4.18
2022-11-30T08:37:59.714Z,4.28
2022-11-30T08:41:02.405Z,4.42
2022-11-30T08:44:05.147Z,4.45
2022-11-30T08:47:07.475Z,4.58
2022-11-30T08:50:10.154Z,4.59
2022-11-30T08:53:12.357Z,4.62
2022-11-30T08:56:25.711Z,4.63
2022-11-30T08:59:30.580Z,4.67
2022-11-30T09:02:34.130Z,4.84
2022-11-30T09:05:37.794Z,4.81
2022-11-30T09:08:41.629Z,4.87
2022-11-30T09:11:43.909Z,4.91
2022-11-30T09:14:53.956Z,4.90
2022-11-30T09:18:02.781Z,5.07
2022-11-30T09:21:12.859Z,5.13
2022-11-30T09:24:15.157Z,5.13
2022-11-30T09:27:17.722Z,5.21
2022-11-30T09:30:20.204Z,5.07
2022-11-30T09:33:23.718Z,5.08
2022-11-30T09:36:27.283Z,5.11
2022-11-30T09:39:29.614Z,5.18
2022-11-30T09:43:04.478Z,5.20
2022-11-30T09:46:09.564Z,5.24
2022-11-30T09:49:39.321Z,5.30
2022-11-30T09:52:46.085Z,5.51
2022-11-30T09:55:48.472Z,5.51
2022-11-30T09:59:07.640Z,5.65
2022-11-30T10:02:17.444Z,5.48
2022-11-30T10:05:22.267Z,5.55
2022-11-30T10:08:38.911Z,5.35
2022-11-30T10:11:49.918Z,5.35
2022-11-30T10:15:48.519Z,5.44
2022-11-30T10:18:56.884Z,5.24
2022-11-30T10:22:22.570Z,5.23
2022-11-30T10:25:48.204Z,5.30
2022-11-30T10:28:52.885Z,5.31
2022-11-30T10:31:59.994Z,5.52
2022-11-30T10:35:15.973Z,5.66
2022-11-30T10:38:24.348Z,5.86
2022-11-30T10:41:39.504Z,5.92
2022-11-30T10:44:46.064Z,6.03
2022-11-30T10:48:04.327Z,6.13
2022-11-30T10:51:07.194Z,6.20
2022-11-30T10:54:16.906Z,6.26
2022-11-30T10:57:19.114Z,6.07
2022-11-30T11:00:21.870Z,6.37
2022-11-30T11:03:25.698Z,6.34
2022-11-30T11:06:28.090Z,6.47
2022-11-30T11:09:38.639Z,6.54
2022-11-30T11:12:47.822Z,6.55
2022-11-30T11:15:58.973Z,6.47
2022-11-30T11:19:01.264Z,6.23
2022-11-30T11:22:24.886Z,6.14
2022-11-30T11:25:37.299Z,6.26
2022-11-30T11:28:45.106Z,6.30
2022-11-30T11:31:47.511Z,6.40
2022-11-30T11:34:51.500Z,6.41
2022-11-30T11:37:53.910Z,6.40
2022-11-30T11:40:59.258Z,6.40
2022-11-30T11:44:04.098Z,6.34
2022-11-30T11:47:07.765Z,6.38
2022-11-30T11:50:13.070Z,6.34
2022-11-30T11:53:25.598Z,6.10
2022-11-30T11:56:32.941Z,6.02
2022-11-30T11:59:47.360Z,6.00
2022-11-30T12:02:57.771Z,5.83
2022-11-30T12:06:10.029Z,5.89
2022-11-30T12:09:39.777Z,6.00
2022-11-30T12:12:47.473Z,6.07
2022-11-30T12:16:05.960Z,6.10
2022-11-30T12:19:21.864Z,6.03
2022-11-30T12:22:48.218Z,6.00
2022-11-30T12:26:04.330Z,5.99
2022-11-30T12:29:09.954Z,6.06
2022-11-30T12:32:49.724Z,5.99
2022-11-30T12:35:57.727Z,6.00
2022-11-30T12:39:45.431Z,5.93
2022-11-30T12:43:21.388Z,5.95
2022-11-30T12:46:46.589Z,5.93
2022-11-30T12:50:08.539Z,5.88
2022-11-30T12:53:19.863Z,5.96
2022-11-30T12:56:56.702Z,5.79
2022-11-30T13:00:17.288Z,5.83
2022-11-30T13:03:40.239Z,5.86
2022-11-30T13:07:19.268Z,5.80
2022-11-30T13:10:24.424Z,5.75
2022-11-30T13:13:30.367Z,5.59
2022-11-30T13:16:34.502Z,5.69
2022-11-30T13:20:16.889Z,5.61
2022-11-30T13:23:41.728Z,5.51
2022-11-30T13:27:39.411Z,5.45
2022-11-30T13:30:53.703Z,5.49
2022-11-30T13:33:55.950Z,5.40
2022-11-30T13:37:07.670Z,5.48
2022-11-30T13:40:22.523Z,5.56
2022-11-30T13:43:27.640Z,5.55
2022-11-30T13:46:30.371Z,5.62
2022-11-30T13:49:35.761Z,5.44
2022-11-30T13:53:02.938Z,5.40
2022-11-30T13:56:17.358Z,5.38
2022-11-30T13:59:25.448Z,5.47
2022-11-30T14:02:33.820Z,5.41
2022-11-30T14:05:41.099Z,5.48
2022-11-30T14:08:43.363Z,5.61
2022-11-30T14:11:45.879Z,5.58
2022-11-30T14:14:48.530Z,5.54
2022-11-30T14:17:55.604Z,5.40
2022-11-30T14:21:13.485Z,5.34
2022-11-30T14:24:21.937Z,5.40
2022-11-30T14:27:27.319Z,5.32
2022-11-30T14:30:32.821Z,5.38
2022-11-30T14:33:55.146Z,5.47
2022-11-30T14:37:02.667Z,5.28
2022-11-30T14:40:07.052Z,5.31
2022-11-30T14:43:17.067Z,5.28
2022-11-30T14:46:19.502Z,5.30
2022-11-30T14:49:23.884Z,5.16
2022-11-30T14:52:50.807Z,5.21
2022-11-30T14:56:06.723Z,5.16
2022-11-30T14:59:41.847Z,5.01
2022-11-30T15:02:44.702Z,4.90
2022-11-30T15:05:50.104Z,4.84
2022-11-30T15:08:55.414Z,4.83
2022-11-30T15:11:58.410Z,4.83
2022-11-30T15:15:03.395Z,4.86
2022-11-30T15:18:16.305Z,4.80
2022-11-30T15:21:24.827Z,4.81
2022-11-30T15:24:29.451Z,4.84
2022-11-30T15:27:32.097Z,4.87
2022-11-30T15:30:43.000Z,4.89
2022-11-30T15:33:48.064Z,4.83
2022-11-30T15:36:54.624Z,4.83
2022-11-30T15:40:00.160Z,4.86
2022-11-30T15:43:02.870Z,4.79
2022-11-30T15:46:31.836Z,4.83
2022-11-30T15:49:36.399Z,4.73
2022-11-30T15:52:49.993Z,4.77
2022-11-30T15:55:58.036Z,4.83
2022-11-30T15:59:24.636Z,4.84
2022-11-30T16:02:37.575Z,4.72
2022-11-30T16:05:40.390Z,4.75
2022-11-30T16:08:47.600Z,4.65
2022-11-30T16:11:54.431Z,4.59
2022-11-30T16:14:57.208Z,4.66
2022-11-30T16:18:22.925Z,4.69
2022-11-30T16:21:25.400Z,4.67
2022-11-30T16:24:27.663Z,4.69
2022-11-30T16:27:30.683Z,4.62
2022-11-30T16:30:32.922Z,4.60
2022-11-30T16:33:35.255Z,4.49
2022-11-30T16:36:38.609Z,4.50
2022-11-30T16:39:40.820Z,4.56
2022-11-30T16:42:43.516Z,4.53
2022-11-30T16:45:46.859Z,4.53
2022-11-30T16:48:49.779Z,4.60
2022-11-30T16:51:52.032Z,4.55
2022-11-30T16:54:54.231Z,4.58
2022-11-30T16:57:56.507Z,4.55
2022-11-30T17:01:00.336Z,4.52
2022-11-30T17:04:12.069Z,4.56
2022-11-30T17:07:14.377Z,4.60
2022-11-30T17:10:16.893Z,4.62
2022-11-30T17:13:19.230Z,4.58
2022-11-30T17:16:21.758Z,4.53
2022-11-30T17:19:24.017Z,4.62
2022-11-30T17:22:26.294Z,4.59
2022-11-30T17:25:28.578Z,4.49
2022-11-30T17:28:30.864Z,4.56
2022-11-30T17:31:33.293Z,4.53
2022-11-30T17:34:35.492Z,4.59
2022-11-30T17:37:37.826Z,4.66
2022-11-30T17:40:42.064Z,4.53
2022-11-30T17:43:44.324Z,4.56
2022-11-30T17:46:48.436Z,4.56
2022-11-30T17:49:50.990Z,4.65
2022-11-30T17:52:53.240Z,4.69
2022-11-30T17:56:15.485Z,4.75
2022-11-30T17:59:17.761Z,4.58
2022-11-30T18:02:19.980Z,4.49
2022-11-30T18:05:22.251Z,4.42
2022-11-30T18:08:24.466Z,4.41
2022-11-30T18:11:26.829Z,4.45
2022-11-30T18:14:29.015Z,4.36
2022-11-30T18:17:32.219Z,4.50
2022-11-30T18:20:34.516Z,4.39
2022-11-30T18:23:38.087Z,4.38
2022-11-30T18:26:40.732Z,4.35
2022-11-30T18:29:42.971Z,4.28
2022-11-30T18:32:45.203Z,4.46
2022-11-30T18:35:47.507Z,4.38
2022-11-30T18:38:49.807Z,4.44
2022-11-30T18:41:52.192Z,4.38
2022-11-30T18:44:54.426Z,4.34
2022-11-30T18:47:56.667Z,4.42
2022-11-30T18:50:58.976Z,4.42
2022-11-30T18:54:06.758Z,4.39
2022-11-30T18:57:09.036Z,4.38
2022-11-30T19:00:11.698Z,4.46
2022-11-30T19:03:13.935Z,4.44
2022-11-30T19:06:16.190Z,4.48
2022-11-30T19:09:23.965Z,4.46
2022-11-30T19:12:26.188Z,4.46
2022-11-30T19:15:28.388Z,4.48
2022-11-30T19:18:30.967Z,4.39
2022-11-30T19:21:33.400Z,4.22
2022-11-30T19:24:36.139Z,4.24
2022-11-30T19:27:38.417Z,4.28
2022-11-30T19:30:40.695Z,4.34
2022-11-30T19:33:45.291Z,4.32
2022-11-30T19:36:47.564Z,4.31
2022-11-30T19:39:49.790Z,4.25
2022-11-30T19:42:52.057Z,4.22
2022-11-30T19:45:54.331Z,4.19
2022-11-30T19:48:58.108Z,4.22
2022-11-30T19:52:00.315Z,4.19
2022-11-30T19:55:02.579Z,4.39
2022-11-30T19:58:04.803Z,4.31
2022-11-30T20:01:12.397Z,4.29
2022-11-30T20:04:14.672Z,4.36
2022-11-30T20:07:16.971Z,4.28
2022-11-30T20:10:19.200Z,4.41
2022-11-30T20:13:21.662Z,4.25
2022-11-30T20:16:24.039Z,4.19
2022-11-30T20:19:26.343Z,4.08
2022-11-30T20:22:28.646Z,4.04
2022-11-30T20:25:32.139Z,3.87
2022-11-30T20:28:37.055Z,3.74
2022-11-30T20:31:39.816Z,3.62
2022-11-30T20:34:43.849Z,3.50
2022-11-30T20:37:46.279Z,3.44
2022-11-30T20:40:48.547Z,3.36
2022-11-30T20:43:51.849Z,3.46
2022-11-30T20:46:54.149Z,3.36
2022-11-30T20:49:56.349Z,3.32
2022-11-30T20:52:58.555Z,3.25
2022-11-30T20:56:00.996Z,3.29
2022-11-30T20:59:06.237Z,3.46
2022-11-30T21:02:10.179Z,3.49
2022-11-30T21:05:12.800Z,3.52
2022-11-30T21:08:15.296Z,3.44
2022-11-30T21:11:19.583Z,3.54
2022-11-30T21:14:22.218Z,3.47
2022-11-30T21:17:24.454Z,3.71
2022-11-30T21:20:26.755Z,3.76
2022-11-30T21:23:29.033Z,3.88
2022-11-30T21:26:37.357Z,3.87
2022-11-30T21:29:39.576Z,3.98
2022-11-30T21:32:41.815Z,3.93
2022-11-30T21:35:44.051Z,3.80
2022-11-30T21:38:46.288Z,3.71
2022-11-30T21:41:48.631Z,3.66
2022-11-30T21:44:51.013Z,3.74
2022-11-30T21:47:53.248Z,3.78
2022-11-30T21:51:10.567Z,3.83
2022-11-30T21:54:13.517Z,3.74
2022-11-30T21:57:15.764Z,3.87
2022-11-30T22:00:18.460Z,3.94
2022-11-30T22:03:20.897Z,4.02
2022-11-30T22:06:24.351Z,3.90
2022-11-30T22:09:26.558Z,3.90
2022-11-30T22:12:28.871Z,3.87
2022-11-30T22:15:31.115Z,3.93
2022-11-30T22:18:33.712Z,3.94
2022-11-30T22:21:36.083Z,3.99
2022-11-30T22:24:38.279Z,4.04
2022-11-30T22:27:40.603Z,3.99
2022-11-30T22:30:44.536Z,3.99
2022-11-30T22:33:47.538Z,3.99
2022-11-30T22:36:49.832Z,4.01
2022-11-30T22:39:52.084Z,3.99
2022-11-30T22:42:54.279Z,4.08
2022-11-30T22:46:03.038Z,4.18
2022-11-30T22:49:07.308Z,4.12
2022-11-30T22:52:09.607Z,4.19
2022-11-30T22:55:11.908Z,4.09
2022-11-30T22:58:14.465Z,4.11
2022-11-30T23:01:22.367Z,4.15
2022-11-30T23:04:24.634Z,4.17
2022-11-30T23:07:33.370Z,4.24
2022-11-30T23:10:38.423Z,4.05
2022-11-30T23:13:42.021Z,4.17
2022-11-30T23:16:45.098Z,4.19
2022-11-30T23:19:47.566Z,4.19
2022-11-30T23:22:49.981Z,4.17
2022-11-30T23:25:52.217Z,4.11
2022-11-30T23:28:55.800Z,4.18
2022-11-30T23:31:58.155Z,4.19
2022-11-30T23:35:00.444Z,4.14
2022-11-30T23:38:02.849Z,4.12
2022-11-30T23:41:05.219Z,4.15
2022-11-30T23:44:08.000Z,4.11
2022-11-30T23:47:13.062Z,4.11
2022-11-30T23:50:19.157Z,4.19
2022-11-30T23:53:22.195Z,4.21
2022-11-30T23:56:24.838Z,4.34
2022-11-30T23:59:27.093Z,4.31
